sensor_id;sensor_type;location;lat;lon;timestamp;temperature;humidity
21353;DHT22;10834;52.268;6.770;2023-05-07T00:02:35;14.50;99.90
21353;DHT22;10834;52.268;6.770;2023-05-07T00:05:21;14.50;99.90
21353;DHT22;10834;52.268;6.770;2023-05-07T00:08:07;14.50;99.90
21353;DHT22;10834;52.268;6.770;2023-05-07T00:10:53;14.50;99.90
21353;DHT22;10834;52.268;6.770;2023-05-07T00:13:39;14.50;99.90
21353;DHT22;10834;52.268;6.770;2023-05-07T00:16:25;14.50;99.90
21353;DHT22;10834;52.268;6.770;2023-05-07T00:19:11;14.40;99.90
21353;DHT22;10834;52.268;6.770;2023-05-07T00:21:57;14.40;99.90
21353;DHT22;10834;52.268;6.770;2023-05-07T00:24:43;14.50;99.90
21353;DHT22;10834;52.268;6.770;2023-05-07T00:27:30;14.40;99.90
21353;DHT22;10834;52.268;6.770;2023-05-07T00:30:16;14.40;99.90
21353;DHT22;10834;52.268;6.770;2023-05-07T00:33:02;14.40;99.90
21353;DHT22;10834;52.268;6.770;2023-05-07T00:35:48;14.40;99.90
21353;DHT22;10834;52.268;6.770;2023-05-07T00:38:34;14.40;99.90
21353;DHT22;10834;52.268;6.770;2023-05-07T00:41:20;14.40;99.90
21353;DHT22;10834;52.268;6.770;2023-05-07T00:44:06;14.40;99.90
21353;DHT22;10834;52.268;6.770;2023-05-07T00:46:53;14.40;99.90
21353;DHT22;10834;52.268;6.770;2023-05-07T00:49:44;14.40;99.90
21353;DHT22;10834;52.268;6.770;2023-05-07T00:52:30;14.40;99.90
21353;DHT22;10834;52.268;6.770;2023-05-07T00:55:16;14.40;99.90
21353;DHT22;10834;52.268;6.770;2023-05-07T00:58:02;14.40;99.90
21353;DHT22;10834;52.268;6.770;2023-05-07T01:00:48;14.40;99.90
21353;DHT22;10834;52.268;6.770;2023-05-07T01:03:35;14.40;99.90
21353;DHT22;10834;52.268;6.770;2023-05-07T01:06:23;14.40;99.90
21353;DHT22;10834;52.268;6.770;2023-05-07T01:09:10;14.30;99.90
21353;DHT22;10834;52.268;6.770;2023-05-07T01:11:58;14.30;99.90
21353;DHT22;10834;52.268;6.770;2023-05-07T01:14:44;14.30;99.90
21353;DHT22;10834;52.268;6.770;2023-05-07T01:17:37;14.30;99.90
21353;DHT22;10834;52.268;6.770;2023-05-07T01:20:23;14.30;99.90
21353;DHT22;10834;52.268;6.770;2023-05-07T01:23:11;14.30;99.90
21353;DHT22;10834;52.268;6.770;2023-05-07T01:25:57;14.30;99.90
21353;DHT22;10834;52.268;6.770;2023-05-07T01:28:43;14.30;99.90
21353;DHT22;10834;52.268;6.770;2023-05-07T01:31:29;14.20;99.90
21353;DHT22;10834;52.268;6.770;2023-05-07T01:34:17;14.20;99.90
21353;DHT22;10834;52.268;6.770;2023-05-07T01:37:03;14.20;99.90
21353;DHT22;10834;52.268;6.770;2023-05-07T01:39:49;14.20;99.90
21353;DHT22;10834;52.268;6.770;2023-05-07T01:42:36;14.10;99.90
21353;DHT22;10834;52.268;6.770;2023-05-07T01:45:23;14.10;99.90
21353;DHT22;10834;52.268;6.770;2023-05-07T01:48:10;14.10;99.90
21353;DHT22;10834;52.268;6.770;2023-05-07T01:50:57;14.10;99.90
21353;DHT22;10834;52.268;6.770;2023-05-07T01:53:43;14.00;99.90
21353;DHT22;10834;52.268;6.770;2023-05-07T01:56:29;14.00;99.90
21353;DHT22;10834;52.268;6.770;2023-05-07T01:59:15;14.00;99.90
21353;DHT22;10834;52.268;6.770;2023-05-07T02:02:02;14.00;99.90
21353;DHT22;10834;52.268;6.770;2023-05-07T02:04:48;13.90;99.90
21353;DHT22;10834;52.268;6.770;2023-05-07T02:07:34;13.90;99.90
21353;DHT22;10834;52.268;6.770;2023-05-07T02:10:20;13.90;99.90
21353;DHT22;10834;52.268;6.770;2023-05-07T02:13:06;13.90;99.90
21353;DHT22;10834;52.268;6.770;2023-05-07T02:15:52;13.90;99.90
21353;DHT22;10834;52.268;6.770;2023-05-07T02:18:39;13.90;99.90
21353;DHT22;10834;52.268;6.770;2023-05-07T02:21:25;13.80;99.90
21353;DHT22;10834;52.268;6.770;2023-05-07T02:24:11;13.80;99.90
21353;DHT22;10834;52.268;6.770;2023-05-07T02:26:57;13.80;99.90
21353;DHT22;10834;52.268;6.770;2023-05-07T02:29:43;13.80;99.90
21353;DHT22;10834;52.268;6.770;2023-05-07T02:32:30;13.70;99.90
21353;DHT22;10834;52.268;6.770;2023-05-07T02:35:16;13.70;99.90
21353;DHT22;10834;52.268;6.770;2023-05-07T02:38:02;13.70;99.90
21353;DHT22;10834;52.268;6.770;2023-05-07T02:40:48;13.70;99.90
21353;DHT22;10834;52.268;6.770;2023-05-07T02:43:34;13.70;99.90
21353;DHT22;10834;52.268;6.770;2023-05-07T02:46:20;13.70;99.90
21353;DHT22;10834;52.268;6.770;2023-05-07T02:49:06;13.60;99.90
21353;DHT22;10834;52.268;6.770;2023-05-07T02:51:52;13.60;99.90
21353;DHT22;10834;52.268;6.770;2023-05-07T02:54:38;13.60;99.90
21353;DHT22;10834;52.268;6.770;2023-05-07T02:57:24;13.50;99.90
21353;DHT22;10834;52.268;6.770;2023-05-07T03:00:15;13.60;99.90
21353;DHT22;10834;52.268;6.770;2023-05-07T03:03:02;13.50;99.90
21353;DHT22;10834;52.268;6.770;2023-05-07T03:05:48;13.50;99.90
21353;DHT22;10834;52.268;6.770;2023-05-07T03:08:34;13.40;99.90
21353;DHT22;10834;52.268;6.770;2023-05-07T03:11:20;13.50;99.90
21353;DHT22;10834;52.268;6.770;2023-05-07T03:14:06;13.40;99.90
21353;DHT22;10834;52.268;6.770;2023-05-07T03:16:52;13.40;99.90
21353;DHT22;10834;52.268;6.770;2023-05-07T03:19:38;13.40;99.90
21353;DHT22;10834;52.268;6.770;2023-05-07T03:22:24;13.30;99.90
21353;DHT22;10834;52.268;6.770;2023-05-07T03:25:11;13.30;99.90
21353;DHT22;10834;52.268;6.770;2023-05-07T03:27:57;13.30;99.90
21353;DHT22;10834;52.268;6.770;2023-05-07T03:30:43;13.20;99.90
21353;DHT22;10834;52.268;6.770;2023-05-07T03:33:29;13.20;99.90
21353;DHT22;10834;52.268;6.770;2023-05-07T03:36:15;13.20;99.90
21353;DHT22;10834;52.268;6.770;2023-05-07T03:39:01;13.10;99.90
21353;DHT22;10834;52.268;6.770;2023-05-07T03:41:47;13.10;99.90
21353;DHT22;10834;52.268;6.770;2023-05-07T03:44:33;13.10;99.90
21353;DHT22;10834;52.268;6.770;2023-05-07T03:47:19;13.10;99.90
21353;DHT22;10834;52.268;6.770;2023-05-07T03:50:05;13.00;99.90
21353;DHT22;10834;52.268;6.770;2023-05-07T03:52:51;13.00;99.90
21353;DHT22;10834;52.268;6.770;2023-05-07T03:55:37;13.00;99.90
21353;DHT22;10834;52.268;6.770;2023-05-07T03:58:24;13.00;99.90
21353;DHT22;10834;52.268;6.770;2023-05-07T04:01:10;13.00;99.90
21353;DHT22;10834;52.268;6.770;2023-05-07T04:03:57;12.90;99.90
21353;DHT22;10834;52.268;6.770;2023-05-07T04:06:43;12.90;99.90
21353;DHT22;10834;52.268;6.770;2023-05-07T04:09:29;12.90;99.90
21353;DHT22;10834;52.268;6.770;2023-05-07T04:12:15;12.90;99.90
21353;DHT22;10834;52.268;6.770;2023-05-07T04:15:01;12.80;99.90
21353;DHT22;10834;52.268;6.770;2023-05-07T04:17:47;12.80;99.90
21353;DHT22;10834;52.268;6.770;2023-05-07T04:20:34;12.80;99.90
21353;DHT22;10834;52.268;6.770;2023-05-07T04:23:22;12.80;99.90
21353;DHT22;10834;52.268;6.770;2023-05-07T04:26:08;12.80;99.90
21353;DHT22;10834;52.268;6.770;2023-05-07T04:28:54;12.80;99.90
21353;DHT22;10834;52.268;6.770;2023-05-07T04:31:40;12.70;99.90
21353;DHT22;10834;52.268;6.770;2023-05-07T04:34:29;12.70;99.90
21353;DHT22;10834;52.268;6.770;2023-05-07T04:37:16;12.70;99.90
21353;DHT22;10834;52.268;6.770;2023-05-07T04:40:02;12.60;99.90
21353;DHT22;10834;52.268;6.770;2023-05-07T04:42:48;12.60;99.90
21353;DHT22;10834;52.268;6.770;2023-05-07T04:45:35;12.60;99.90
21353;DHT22;10834;52.268;6.770;2023-05-07T04:48:22;12.60;99.90
21353;DHT22;10834;52.268;6.770;2023-05-07T04:51:08;12.70;99.90
21353;DHT22;10834;52.268;6.770;2023-05-07T04:53:54;12.80;99.90
21353;DHT22;10834;52.268;6.770;2023-05-07T04:56:40;12.80;99.90
21353;DHT22;10834;52.268;6.770;2023-05-07T04:59:26;12.80;99.90
21353;DHT22;10834;52.268;6.770;2023-05-07T05:02:12;12.80;99.90
21353;DHT22;10834;52.268;6.770;2023-05-07T05:04:58;12.90;99.90
21353;DHT22;10834;52.268;6.770;2023-05-07T05:07:45;12.90;99.90
21353;DHT22;10834;52.268;6.770;2023-05-07T05:10:31;13.00;99.90
21353;DHT22;10834;52.268;6.770;2023-05-07T05:13:17;13.00;99.90
21353;DHT22;10834;52.268;6.770;2023-05-07T05:16:03;13.10;99.90
21353;DHT22;10834;52.268;6.770;2023-05-07T05:18:49;13.20;99.90
21353;DHT22;10834;52.268;6.770;2023-05-07T05:21:37;13.20;99.90
21353;DHT22;10834;52.268;6.770;2023-05-07T05:24:24;13.30;99.90
21353;DHT22;10834;52.268;6.770;2023-05-07T05:27:10;13.40;99.90
21353;DHT22;10834;52.268;6.770;2023-05-07T05:29:56;13.50;99.90
21353;DHT22;10834;52.268;6.770;2023-05-07T05:32:42;13.60;99.90
21353;DHT22;10834;52.268;6.770;2023-05-07T05:35:29;13.60;99.90
21353;DHT22;10834;52.268;6.770;2023-05-07T05:38:15;13.70;99.90
21353;DHT22;10834;52.268;6.770;2023-05-07T05:41:01;13.80;99.90
21353;DHT22;10834;52.268;6.770;2023-05-07T05:43:48;13.80;99.90
21353;DHT22;10834;52.268;6.770;2023-05-07T05:46:35;13.90;99.90
21353;DHT22;10834;52.268;6.770;2023-05-07T05:49:21;13.80;99.90
21353;DHT22;10834;52.268;6.770;2023-05-07T05:52:07;13.80;99.90
21353;DHT22;10834;52.268;6.770;2023-05-07T05:54:53;13.80;99.90
21353;DHT22;10834;52.268;6.770;2023-05-07T05:57:39;13.70;99.90
21353;DHT22;10834;52.268;6.770;2023-05-07T06:00:25;13.80;99.90
21353;DHT22;10834;52.268;6.770;2023-05-07T06:03:12;13.80;99.90
21353;DHT22;10834;52.268;6.770;2023-05-07T06:05:58;13.90;99.90
21353;DHT22;10834;52.268;6.770;2023-05-07T06:08:45;13.90;99.90
21353;DHT22;10834;52.268;6.770;2023-05-07T06:11:32;14.00;99.90
21353;DHT22;10834;52.268;6.770;2023-05-07T06:14:18;14.00;99.90
21353;DHT22;10834;52.268;6.770;2023-05-07T06:17:04;14.10;99.90
21353;DHT22;10834;52.268;6.770;2023-05-07T06:19:51;14.20;99.90
21353;DHT22;10834;52.268;6.770;2023-05-07T06:22:37;14.30;99.90
21353;DHT22;10834;52.268;6.770;2023-05-07T06:25:23;14.30;99.90
21353;DHT22;10834;52.268;6.770;2023-05-07T06:28:09;14.30;99.90
21353;DHT22;10834;52.268;6.770;2023-05-07T06:31:11;14.40;99.90
21353;DHT22;10834;52.268;6.770;2023-05-07T06:33:57;14.40;99.90
21353;DHT22;10834;52.268;6.770;2023-05-07T06:36:44;14.30;99.90
21353;DHT22;10834;52.268;6.770;2023-05-07T06:39:30;14.30;99.90
21353;DHT22;10834;52.268;6.770;2023-05-07T06:42:17;14.20;99.90
21353;DHT22;10834;52.268;6.770;2023-05-07T06:45:03;14.30;99.90
21353;DHT22;10834;52.268;6.770;2023-05-07T06:47:49;14.20;99.90
21353;DHT22;10834;52.268;6.770;2023-05-07T06:50:35;14.30;99.90
21353;DHT22;10834;52.268;6.770;2023-05-07T06:53:21;14.30;99.90
21353;DHT22;10834;52.268;6.770;2023-05-07T06:56:07;14.40;99.90
21353;DHT22;10834;52.268;6.770;2023-05-07T06:58:53;14.60;99.90
21353;DHT22;10834;52.268;6.770;2023-05-07T07:01:39;14.70;99.90
21353;DHT22;10834;52.268;6.770;2023-05-07T07:04:26;14.80;99.90
21353;DHT22;10834;52.268;6.770;2023-05-07T07:07:12;15.00;99.90
21353;DHT22;10834;52.268;6.770;2023-05-07T07:09:58;15.10;99.90
21353;DHT22;10834;52.268;6.770;2023-05-07T07:12:44;15.40;99.90
21353;DHT22;10834;52.268;6.770;2023-05-07T07:15:30;15.50;99.90
21353;DHT22;10834;52.268;6.770;2023-05-07T07:18:16;15.60;99.90
21353;DHT22;10834;52.268;6.770;2023-05-07T07:21:02;15.60;99.90
21353;DHT22;10834;52.268;6.770;2023-05-07T07:23:48;15.60;99.90
21353;DHT22;10834;52.268;6.770;2023-05-07T07:26:34;15.50;99.90
21353;DHT22;10834;52.268;6.770;2023-05-07T07:29:20;15.30;99.90
21353;DHT22;10834;52.268;6.770;2023-05-07T07:32:07;15.20;99.90
21353;DHT22;10834;52.268;6.770;2023-05-07T07:34:53;15.20;99.90
21353;DHT22;10834;52.268;6.770;2023-05-07T07:37:39;15.20;99.90
21353;DHT22;10834;52.268;6.770;2023-05-07T07:40:25;15.30;99.90
21353;DHT22;10834;52.268;6.770;2023-05-07T07:43:11;15.40;99.90
21353;DHT22;10834;52.268;6.770;2023-05-07T07:45:57;15.50;99.90
21353;DHT22;10834;52.268;6.770;2023-05-07T07:48:43;15.60;99.90
21353;DHT22;10834;52.268;6.770;2023-05-07T07:51:29;15.70;99.90
21353;DHT22;10834;52.268;6.770;2023-05-07T07:54:16;15.80;99.90
21353;DHT22;10834;52.268;6.770;2023-05-07T07:57:02;15.80;99.90
21353;DHT22;10834;52.268;6.770;2023-05-07T07:59:49;15.80;99.90
21353;DHT22;10834;52.268;6.770;2023-05-07T08:02:35;15.80;99.90
21353;DHT22;10834;52.268;6.770;2023-05-07T08:05:21;15.90;99.90
21353;DHT22;10834;52.268;6.770;2023-05-07T08:08:08;15.90;99.90
21353;DHT22;10834;52.268;6.770;2023-05-07T08:10:55;15.90;99.90
21353;DHT22;10834;52.268;6.770;2023-05-07T08:13:41;15.90;99.90
21353;DHT22;10834;52.268;6.770;2023-05-07T08:16:27;16.00;99.90
21353;DHT22;10834;52.268;6.770;2023-05-07T08:19:14;16.20;99.90
21353;DHT22;10834;52.268;6.770;2023-05-07T08:22:00;16.20;99.90
21353;DHT22;10834;52.268;6.770;2023-05-07T08:24:46;16.30;99.90
21353;DHT22;10834;52.268;6.770;2023-05-07T08:27:32;16.30;99.90
21353;DHT22;10834;52.268;6.770;2023-05-07T08:30:18;16.40;99.90
21353;DHT22;10834;52.268;6.770;2023-05-07T08:33:04;16.50;99.90
21353;DHT22;10834;52.268;6.770;2023-05-07T08:35:50;16.80;99.90
21353;DHT22;10834;52.268;6.770;2023-05-07T08:38:36;17.10;99.90
21353;DHT22;10834;52.268;6.770;2023-05-07T08:41:22;17.40;99.90
21353;DHT22;10834;52.268;6.770;2023-05-07T08:44:12;17.70;99.90
21353;DHT22;10834;52.268;6.770;2023-05-07T08:47:01;17.90;99.90
21353;DHT22;10834;52.268;6.770;2023-05-07T08:49:47;18.00;99.90
21353;DHT22;10834;52.268;6.770;2023-05-07T08:52:33;18.10;99.90
21353;DHT22;10834;52.268;6.770;2023-05-07T08:55:21;18.30;99.90
21353;DHT22;10834;52.268;6.770;2023-05-07T08:58:08;18.40;99.90
21353;DHT22;10834;52.268;6.770;2023-05-07T09:00:54;18.60;99.90
21353;DHT22;10834;52.268;6.770;2023-05-07T09:03:40;18.70;99.90
21353;DHT22;10834;52.268;6.770;2023-05-07T09:06:27;18.80;99.90
21353;DHT22;10834;52.268;6.770;2023-05-07T09:09:17;19.00;99.90
21353;DHT22;10834;52.268;6.770;2023-05-07T09:12:06;19.10;99.90
21353;DHT22;10834;52.268;6.770;2023-05-07T09:14:52;19.30;99.90
21353;DHT22;10834;52.268;6.770;2023-05-07T09:17:38;19.60;99.90
21353;DHT22;10834;52.268;6.770;2023-05-07T09:20:24;19.90;99.90
21353;DHT22;10834;52.268;6.770;2023-05-07T09:23:10;20.00;99.90
21353;DHT22;10834;52.268;6.770;2023-05-07T09:26:00;20.10;99.90
21353;DHT22;10834;52.268;6.770;2023-05-07T09:28:46;20.30;99.90
21353;DHT22;10834;52.268;6.770;2023-05-07T09:31:35;20.40;99.90
21353;DHT22;10834;52.268;6.770;2023-05-07T09:34:21;20.60;99.90
21353;DHT22;10834;52.268;6.770;2023-05-07T09:37:08;20.60;99.90
21353;DHT22;10834;52.268;6.770;2023-05-07T09:39:54;20.50;99.90
21353;DHT22;10834;52.268;6.770;2023-05-07T09:42:40;20.70;99.90
21353;DHT22;10834;52.268;6.770;2023-05-07T09:45:27;20.80;99.90
21353;DHT22;10834;52.268;6.770;2023-05-07T09:48:15;21.00;99.90
21353;DHT22;10834;52.268;6.770;2023-05-07T09:51:09;21.10;99.90
21353;DHT22;10834;52.268;6.770;2023-05-07T09:53:58;21.30;99.90
21353;DHT22;10834;52.268;6.770;2023-05-07T09:56:52;21.60;99.90
21353;DHT22;10834;52.268;6.770;2023-05-07T09:59:39;22.10;99.90
21353;DHT22;10834;52.268;6.770;2023-05-07T10:02:27;22.30;99.90
21353;DHT22;10834;52.268;6.770;2023-05-07T10:05:16;22.40;99.90
21353;DHT22;10834;52.268;6.770;2023-05-07T10:08:03;22.30;98.40
21353;DHT22;10834;52.268;6.770;2023-05-07T10:10:49;22.20;97.60
21353;DHT22;10834;52.268;6.770;2023-05-07T10:13:36;22.00;97.20
21353;DHT22;10834;52.268;6.770;2023-05-07T10:16:24;21.90;98.70
21353;DHT22;10834;52.268;6.770;2023-05-07T10:19:11;22.00;99.90
21353;DHT22;10834;52.268;6.770;2023-05-07T10:22:05;22.30;99.90
21353;DHT22;10834;52.268;6.770;2023-05-07T10:24:52;22.60;99.90
21353;DHT22;10834;52.268;6.770;2023-05-07T10:27:41;22.90;97.90
21353;DHT22;10834;52.268;6.770;2023-05-07T10:33:27;24.10;91.00
21353;DHT22;10834;52.268;6.770;2023-05-07T10:36:14;24.30;89.60
21353;DHT22;10834;52.268;6.770;2023-05-07T10:39:00;24.20;87.50
21353;DHT22;10834;52.268;6.770;2023-05-07T10:41:47;24.20;88.80
21353;DHT22;10834;52.268;6.770;2023-05-07T10:44:33;24.20;85.60
21353;DHT22;10834;52.268;6.770;2023-05-07T10:47:19;23.90;82.40
21353;DHT22;10834;52.268;6.770;2023-05-07T10:53:26;23.70;88.60
21353;DHT22;10834;52.268;6.770;2023-05-07T11:02:07;24.50;85.20
21353;DHT22;10834;52.268;6.770;2023-05-07T11:05:20;24.90;83.50
21353;DHT22;10834;52.268;6.770;2023-05-07T11:08:07;25.30;74.20
21353;DHT22;10834;52.268;6.770;2023-05-07T11:10:57;25.50;74.40
21353;DHT22;10834;52.268;6.770;2023-05-07T11:13:45;25.70;70.50
21353;DHT22;10834;52.268;6.770;2023-05-07T11:16:32;25.80;70.50
21353;DHT22;10834;52.268;6.770;2023-05-07T11:19:54;25.80;69.80
21353;DHT22;10834;52.268;6.770;2023-05-07T11:22:40;25.70;70.00
21353;DHT22;10834;52.268;6.770;2023-05-07T11:25:26;25.90;71.70
21353;DHT22;10834;52.268;6.770;2023-05-07T11:28:13;25.80;64.00
21353;DHT22;10834;52.268;6.770;2023-05-07T11:30:59;25.60;69.20
21353;DHT22;10834;52.268;6.770;2023-05-07T11:33:45;25.70;72.80
21353;DHT22;10834;52.268;6.770;2023-05-07T11:36:32;25.80;73.60
21353;DHT22;10834;52.268;6.770;2023-05-07T11:39:29;25.90;70.20
21353;DHT22;10834;52.268;6.770;2023-05-07T11:45:12;26.10;71.60
21353;DHT22;10834;52.268;6.770;2023-05-07T11:48:08;26.20;68.80
21353;DHT22;10834;52.268;6.770;2023-05-07T11:51:00;26.10;68.70
21353;DHT22;10834;52.268;6.770;2023-05-07T11:53:48;26.30;73.00
21353;DHT22;10834;52.268;6.770;2023-05-07T11:56:35;26.40;67.30
21353;DHT22;10834;52.268;6.770;2023-05-07T11:59:21;26.40;70.50
21353;DHT22;10834;52.268;6.770;2023-05-07T12:02:08;26.20;65.00
21353;DHT22;10834;52.268;6.770;2023-05-07T12:04:55;25.90;70.20
21353;DHT22;10834;52.268;6.770;2023-05-07T12:07:41;25.80;71.90
21353;DHT22;10834;52.268;6.770;2023-05-07T12:10:27;25.50;69.60
21353;DHT22;10834;52.268;6.770;2023-05-07T12:13:17;25.40;69.70
21353;DHT22;10834;52.268;6.770;2023-05-07T12:16:04;25.50;75.70
21353;DHT22;10834;52.268;6.770;2023-05-07T12:18:51;25.60;76.20
21353;DHT22;10834;52.268;6.770;2023-05-07T12:21:38;25.70;76.90
21353;DHT22;10834;52.268;6.770;2023-05-07T12:24:25;25.70;70.70
21353;DHT22;10834;52.268;6.770;2023-05-07T12:27:11;25.50;69.00
21353;DHT22;10834;52.268;6.770;2023-05-07T12:29:58;25.40;67.50
21353;DHT22;10834;52.268;6.770;2023-05-07T12:32:45;25.30;69.00
21353;DHT22;10834;52.268;6.770;2023-05-07T12:35:35;25.10;64.90
21353;DHT22;10834;52.268;6.770;2023-05-07T12:38:22;25.20;66.00
21353;DHT22;10834;52.268;6.770;2023-05-07T12:41:09;25.20;65.70
21353;DHT22;10834;52.268;6.770;2023-05-07T12:43:56;25.10;65.40
21353;DHT22;10834;52.268;6.770;2023-05-07T12:46:43;25.10;64.30
21353;DHT22;10834;52.268;6.770;2023-05-07T12:49:29;25.00;61.40
21353;DHT22;10834;52.268;6.770;2023-05-07T12:52:16;25.00;62.60
21353;DHT22;10834;52.268;6.770;2023-05-07T12:55:06;25.00;64.20
21353;DHT22;10834;52.268;6.770;2023-05-07T12:57:53;25.00;62.80
21353;DHT22;10834;52.268;6.770;2023-05-07T13:00:39;25.10;62.70
21353;DHT22;10834;52.268;6.770;2023-05-07T13:03:31;25.10;62.50
21353;DHT22;10834;52.268;6.770;2023-05-07T13:06:17;25.20;65.50
21353;DHT22;10834;52.268;6.770;2023-05-07T13:09:04;25.30;61.80
21353;DHT22;10834;52.268;6.770;2023-05-07T13:11:50;25.20;62.00
21353;DHT22;10834;52.268;6.770;2023-05-07T13:14:37;25.10;64.20
21353;DHT22;10834;52.268;6.770;2023-05-07T13:17:23;25.00;64.10
21353;DHT22;10834;52.268;6.770;2023-05-07T13:20:10;24.90;67.50
21353;DHT22;10834;52.268;6.770;2023-05-07T13:22:56;25.00;70.40
21353;DHT22;10834;52.268;6.770;2023-05-07T13:25:42;25.10;69.10
21353;DHT22;10834;52.268;6.770;2023-05-07T13:28:28;25.20;64.20
21353;DHT22;10834;52.268;6.770;2023-05-07T13:31:14;25.30;64.70
21353;DHT22;10834;52.268;6.770;2023-05-07T13:34:00;25.30;64.50
21353;DHT22;10834;52.268;6.770;2023-05-07T13:36:46;25.30;62.80
21353;DHT22;10834;52.268;6.770;2023-05-07T13:39:32;25.20;62.90
21353;DHT22;10834;52.268;6.770;2023-05-07T13:42:18;25.10;65.70
21353;DHT22;10834;52.268;6.770;2023-05-07T13:45:04;25.00;64.00
21353;DHT22;10834;52.268;6.770;2023-05-07T13:47:52;24.80;62.40
21353;DHT22;10834;52.268;6.770;2023-05-07T13:50:38;24.70;67.20
21353;DHT22;10834;52.268;6.770;2023-05-07T13:53:24;24.70;68.70
21353;DHT22;10834;52.268;6.770;2023-05-07T13:56:10;24.80;68.40
21353;DHT22;10834;52.268;6.770;2023-05-07T13:58:56;24.80;66.40
21353;DHT22;10834;52.268;6.770;2023-05-07T14:01:42;24.90;64.40
21353;DHT22;10834;52.268;6.770;2023-05-07T14:04:29;24.90;62.40
21353;DHT22;10834;52.268;6.770;2023-05-07T14:07:16;24.90;61.40
21353;DHT22;10834;52.268;6.770;2023-05-07T14:10:02;25.00;62.20
21353;DHT22;10834;52.268;6.770;2023-05-07T14:12:48;25.10;62.50
21353;DHT22;10834;52.268;6.770;2023-05-07T14:15:34;25.20;62.60
21353;DHT22;10834;52.268;6.770;2023-05-07T14:18:20;25.10;60.00
21353;DHT22;10834;52.268;6.770;2023-05-07T14:21:06;25.10;60.90
21353;DHT22;10834;52.268;6.770;2023-05-07T14:23:53;25.10;63.10
21353;DHT22;10834;52.268;6.770;2023-05-07T14:26:39;25.00;62.20
21353;DHT22;10834;52.268;6.770;2023-05-07T14:29:25;25.00;66.10
21353;DHT22;10834;52.268;6.770;2023-05-07T14:32:11;24.80;64.40
21353;DHT22;10834;52.268;6.770;2023-05-07T14:34:57;24.40;65.10
21353;DHT22;10834;52.268;6.770;2023-05-07T14:37:44;24.20;67.50
21353;DHT22;10834;52.268;6.770;2023-05-07T14:40:30;24.00;70.30
21353;DHT22;10834;52.268;6.770;2023-05-07T14:43:16;23.90;71.30
21353;DHT22;10834;52.268;6.770;2023-05-07T14:46:02;23.70;72.70
21353;DHT22;10834;52.268;6.770;2023-05-07T14:48:48;23.80;74.60
21353;DHT22;10834;52.268;6.770;2023-05-07T14:51:34;23.90;76.20
21353;DHT22;10834;52.268;6.770;2023-05-07T14:54:20;23.90;76.40
21353;DHT22;10834;52.268;6.770;2023-05-07T14:57:08;23.90;74.00
21353;DHT22;10834;52.268;6.770;2023-05-07T14:59:55;23.90;77.60
21353;DHT22;10834;52.268;6.770;2023-05-07T15:02:41;23.90;77.70
21353;DHT22;10834;52.268;6.770;2023-05-07T15:05:27;23.90;77.30
21353;DHT22;10834;52.268;6.770;2023-05-07T15:08:13;23.90;78.80
21353;DHT22;10834;52.268;6.770;2023-05-07T15:10:59;23.90;80.60
21353;DHT22;10834;52.268;6.770;2023-05-07T15:13:45;23.90;80.90
21353;DHT22;10834;52.268;6.770;2023-05-07T15:16:31;23.80;76.70
21353;DHT22;10834;52.268;6.770;2023-05-07T15:19:18;23.80;77.40
21353;DHT22;10834;52.268;6.770;2023-05-07T15:22:04;23.80;78.30
21353;DHT22;10834;52.268;6.770;2023-05-07T15:24:51;23.80;77.10
21353;DHT22;10834;52.268;6.770;2023-05-07T15:27:37;23.70;76.60
21353;DHT22;10834;52.268;6.770;2023-05-07T15:30:23;23.70;77.70
21353;DHT22;10834;52.268;6.770;2023-05-07T15:33:09;23.70;76.90
21353;DHT22;10834;52.268;6.770;2023-05-07T15:35:55;23.60;73.90
21353;DHT22;10834;52.268;6.770;2023-05-07T15:38:44;23.60;77.40
21353;DHT22;10834;52.268;6.770;2023-05-07T15:41:30;23.50;78.10
21353;DHT22;10834;52.268;6.770;2023-05-07T15:44:16;23.50;78.70
21353;DHT22;10834;52.268;6.770;2023-05-07T15:47:02;23.40;79.60
21353;DHT22;10834;52.268;6.770;2023-05-07T15:49:48;23.30;80.30
21353;DHT22;10834;52.268;6.770;2023-05-07T15:52:36;23.10;85.70
21353;DHT22;10834;52.268;6.770;2023-05-07T15:55:22;23.00;88.10
21353;DHT22;10834;52.268;6.770;2023-05-07T15:58:08;22.80;88.40
21353;DHT22;10834;52.268;6.770;2023-05-07T16:00:54;22.50;90.00
21353;DHT22;10834;52.268;6.770;2023-05-07T16:03:40;22.40;92.70
21353;DHT22;10834;52.268;6.770;2023-05-07T16:06:26;22.30;96.30
21353;DHT22;10834;52.268;6.770;2023-05-07T16:09:13;22.30;96.80
21353;DHT22;10834;52.268;6.770;2023-05-07T16:12:00;22.20;98.00
21353;DHT22;10834;52.268;6.770;2023-05-07T16:14:46;22.10;99.00
21353;DHT22;10834;52.268;6.770;2023-05-07T16:17:32;21.90;99.90
21353;DHT22;10834;52.268;6.770;2023-05-07T16:20:18;21.90;99.90
21353;DHT22;10834;52.268;6.770;2023-05-07T16:23:06;21.80;99.90
21353;DHT22;10834;52.268;6.770;2023-05-07T16:25:52;21.70;99.90
21353;DHT22;10834;52.268;6.770;2023-05-07T16:28:38;21.60;99.90
21353;DHT22;10834;52.268;6.770;2023-05-07T16:31:25;21.50;99.90
21353;DHT22;10834;52.268;6.770;2023-05-07T16:34:11;21.50;99.90
21353;DHT22;10834;52.268;6.770;2023-05-07T16:36:57;21.50;99.10
21353;DHT22;10834;52.268;6.770;2023-05-07T16:39:43;21.40;99.90
21353;DHT22;10834;52.268;6.770;2023-05-07T16:42:30;21.40;99.90
21353;DHT22;10834;52.268;6.770;2023-05-07T16:45:16;21.40;99.90
21353;DHT22;10834;52.268;6.770;2023-05-07T16:48:04;21.30;99.90
21353;DHT22;10834;52.268;6.770;2023-05-07T16:50:50;21.30;99.90
21353;DHT22;10834;52.268;6.770;2023-05-07T16:53:36;21.20;99.90
21353;DHT22;10834;52.268;6.770;2023-05-07T16:56:22;21.10;99.90
21353;DHT22;10834;52.268;6.770;2023-05-07T16:59:08;21.00;99.90
21353;DHT22;10834;52.268;6.770;2023-05-07T17:01:54;20.90;99.90
21353;DHT22;10834;52.268;6.770;2023-05-07T17:04:40;20.80;99.90
21353;DHT22;10834;52.268;6.770;2023-05-07T17:07:26;20.60;99.90
21353;DHT22;10834;52.268;6.770;2023-05-07T17:10:12;20.50;99.90
21353;DHT22;10834;52.268;6.770;2023-05-07T17:12:58;20.30;99.90
21353;DHT22;10834;52.268;6.770;2023-05-07T17:15:45;20.20;99.90
21353;DHT22;10834;52.268;6.770;2023-05-07T17:18:32;20.10;99.90
21353;DHT22;10834;52.268;6.770;2023-05-07T17:21:18;20.00;99.90
21353;DHT22;10834;52.268;6.770;2023-05-07T17:24:05;19.90;99.90
21353;DHT22;10834;52.268;6.770;2023-05-07T17:26:51;19.90;99.90
21353;DHT22;10834;52.268;6.770;2023-05-07T17:29:37;19.70;99.90
21353;DHT22;10834;52.268;6.770;2023-05-07T17:32:23;19.70;99.90
21353;DHT22;10834;52.268;6.770;2023-05-07T17:35:09;19.70;99.90
21353;DHT22;10834;52.268;6.770;2023-05-07T17:37:55;19.60;99.90
21353;DHT22;10834;52.268;6.770;2023-05-07T17:40:41;19.50;99.90
21353;DHT22;10834;52.268;6.770;2023-05-07T17:43:27;19.50;99.90
21353;DHT22;10834;52.268;6.770;2023-05-07T17:46:13;19.40;99.90
21353;DHT22;10834;52.268;6.770;2023-05-07T17:48:59;19.30;99.90